Time;durP1;ratioP1;P1;durP2;ratioP2;P2;SDS_P1;SDS_P2;PMS_P1;PMS_P2;Temp;Humidity;BMP_temperature;BMP_pressure;BME280_temperature;BME280_humidity;BME280_pressure;Samples;Min_cycle;Max_cycle;Signal;HPM_P1;HPM_P2
2023/04/16 00:06:09;;;;;;;22.40;13.30;;;;;;;8.49;69.73;99880.59;30734258;28;96677;-68
2023/04/16 00:21:10;;;;;;;27.30;15.50;;;;;;;8.12;70.40;99866.72;30706425;28;97234;-64
2023/04/16 00:36:10;;;;;;;21.05;12.02;;;;;;;7.93;71.25;99872.31;30631235;28;96686;-67
2023/04/16 00:51:10;;;;;;;24.88;15.60;;;;;;;7.80;71.54;99880.69;30630909;28;97395;-67
2023/04/16 01:06:11;;;;;;;26.35;18.85;;;;;;;7.59;72.44;99886.41;30629895;28;96977;-65
2023/04/16 01:21:11;;;;;;;29.02;17.98;;;;;;;7.34;72.47;99896.03;30628251;28;97007;-65
2023/04/16 01:36:12;;;;;;;28.85;18.05;;;;;;;7.03;73.43;99905.28;30625571;28;99595;-65
2023/04/16 01:51:12;;;;;;;32.35;21.88;;;;;;;6.92;74.08;99909.00;30624451;28;97431;-69
2023/04/16 02:06:13;;;;;;;30.65;20.65;;;;;;;6.83;74.18;99917.03;30623878;28;96729;-69
2023/04/16 02:21:13;;;;;;;27.57;18.23;;;;;;;6.74;74.74;99906.38;30622280;28;96577;-68
2023/04/16 02:36:14;;;;;;;28.42;17.58;;;;;;;6.68;74.80;99928.16;30621492;28;96495;-67
2023/04/16 02:51:14;;;;;;;36.65;21.08;;;;;;;6.61;75.35;99942.97;30619233;28;96773;-66
2023/04/16 03:06:15;;;;;;;29.25;18.38;;;;;;;6.65;75.60;99949.63;30618124;28;96621;-65
2023/04/16 03:21:15;;;;;;;28.40;15.82;;;;;;;6.68;76.28;99959.91;30616826;28;96568;-64
2023/04/16 03:36:15;;;;;;;28.17;16.77;;;;;;;6.72;76.61;99977.16;30615400;28;96593;-64
2023/04/16 03:51:15;;;;;;;26.58;16.83;;;;;;;6.74;76.29;99988.44;30613281;28;111647;-67
2023/04/16 04:06:16;;;;;;;33.08;18.13;;;;;;;6.86;76.47;100020.00;30612602;28;97266;-68
2023/04/16 04:21:17;;;;;;;28.02;18.13;;;;;;;7.02;76.18;100036.03;30609916;28;110706;-64
2023/04/16 04:36:17;;;;;;;28.50;17.30;;;;;;;7.23;76.44;100026.94;30609614;28;97889;-67
2023/04/16 04:51:17;;;;;;;26.85;15.98;;;;;;;7.47;76.47;100038.75;30606626;28;104859;-66
2023/04/16 05:06:18;;;;;;;27.52;16.35;;;;;;;7.72;76.09;100053.88;30642701;28;106691;-65
2023/04/16 05:21:18;;;;;;;28.33;18.48;;;;;;;8.09;76.18;100066.03;30622607;28;97223;-66
2023/04/16 05:36:18;;;;;;;28.80;17.08;;;;;;;8.70;75.27;100089.88;30625354;28;96956;-64
2023/04/16 05:51:21;;;;;;;29.38;18.85;;;;;;;8.76;74.59;100099.03;30638779;28;112357;-74
2023/04/16 06:06:22;;;;;;;28.03;16.97;;;;;;;9.41;75.21;100124.94;30741302;28;97330;-66
2023/04/16 06:21:22;;;;;;;26.10;17.35;;;;;;;9.70;73.47;100152.88;30740811;28;96752;-63
2023/04/16 06:36:22;;;;;;;26.05;18.15;;;;;;;9.84;73.60;100159.38;30741272;28;96785;-67
2023/04/16 06:51:23;;;;;;;23.50;15.93;;;;;;;11.47;73.95;100153.72;30733837;28;97152;-64
2023/04/16 07:06:23;;;;;;;24.55;15.55;;;;;;;12.99;69.63;100163.47;30732254;28;97428;-65
2023/04/16 07:21:24;;;;;;;21.65;14.98;;;;;;;14.32;68.48;100186.44;30734183;28;96685;-65
2023/04/16 07:36:27;;;;;;;24.17;14.63;;;;;;;15.73;64.41;100191.44;30734273;28;97417;-63
2023/04/16 07:51:27;;;;;;;;;;;;;;;17.37;62.41;100206.97;30733439;28;96587;-63
2023/04/16 08:06:27;;;;;;;22.05;14.95;;;;;;;18.75;58.33;100215.28;30733467;28;96974;-62
2023/04/16 08:21:29;;;;;;;18.67;13.27;;;;;;;19.81;54.49;100214.19;30729761;28;115486;-62
2023/04/16 08:36:30;;;;;;;11.90;8.70;;;;;;;21.08;50.58;100222.03;30673777;28;96832;-62
2023/04/16 08:51:34;;;;;;;9.15;5.32;;;;;;;22.79;44.08;100245.66;30617942;28;97450;-63
2023/04/16 09:06:35;;;;;;;6.83;4.10;;;;;;;24.77;40.30;100245.50;30701752;28;97398;-62
2023/04/16 09:21:36;;;;;;;10.37;7.80;;;;;;;30.38;29.42;100258.84;30737078;28;96810;-63
2023/04/16 09:36:36;;;;;;;9.35;5.97;;;;;;;29.56;27.94;100251.91;30735903;28;96815;-63
2023/04/16 11:04:57;;;;;;;4.97;2.70;;;;;;;44.85;11.64;100264.50;31193349;28;96943;-64
2023/04/16 11:19:58;;;;;;;5.30;2.50;;;;;;;40.54;13.47;100261.44;31190858;27;97026;-64
2023/04/16 11:35:03;;;;;;;2.53;1.60;;;;;;;36.53;15.90;100265.06;31200578;27;96857;-64
2023/04/16 11:50:23;;;;;;;2.77;1.10;;;;;;;33.22;16.35;100274.44;31198507;27;96752;-64
2023/04/16 12:05:34;;;;;;;2.30;1.30;;;;;;;31.15;18.12;100264.06;31116019;27;96754;-64
2023/04/16 12:20:41;;;;;;;3.93;2.50;;;;;;;30.02;20.44;100264.16;31111039;28;96712;-63
2023/04/16 12:35:42;;;;;;;5.30;3.20;;;;;;;26.41;24.23;100260.69;31111031;28;97710;-64
2023/04/16 12:50:43;;;;;;;5.03;2.40;;;;;;;24.11;26.37;100257.50;31981255;22;99457;-64
2023/04/16 13:05:43;;;;;;;3.83;2.30;;;;;;;22.46;28.08;100258.19;31108810;28;97566;-63
2023/04/16 13:20:44;;;;;;;4.07;2.17;;;;;;;21.53;30.01;100258.41;31107921;28;96740;-63
2023/04/16 13:35:44;;;;;;;4.63;2.50;;;;;;;20.42;32.25;100246.50;31105089;28;96626;-61
2023/04/16 13:50:45;;;;;;;5.10;2.90;;;;;;;19.90;33.25;100247.97;31009917;28;97282;-67
2023/04/16 14:05:45;;;;;;;5.50;3.15;;;;;;;19.75;33.70;100245.66;30977648;28;97075;-63
2023/04/16 14:20:46;;;;;;;5.70;2.33;;;;;;;19.12;34.74;100254.94;30967830;28;96773;-63
2023/04/16 14:35:46;;;;;;;4.25;2.33;;;;;;;17.97;36.58;100248.09;30970020;28;97493;-63
2023/04/16 14:50:47;;;;;;;4.90;2.50;;;;;;;17.48;37.52;100256.63;30974549;28;96917;-64
2023/04/16 15:05:53;;;;;;;3.65;2.22;;;;;;;17.00;38.86;100254.28;30974160;28;97111;-63
2023/04/16 15:20:54;;;;;;;4.87;2.67;;;;;;;16.91;39.15;100265.28;30972389;28;96756;-63
2023/04/16 15:35:54;;;;;;;4.70;2.53;;;;;;;16.74;39.50;100267.56;30985028;28;96716;-63
2023/04/16 15:50:55;;;;;;;4.57;2.08;;;;;;;16.71;39.93;100267.97;30992169;28;106147;-66
2023/04/16 16:05:55;;;;;;;4.53;2.60;;;;;;;16.29;40.25;100264.66;30988647;28;96892;-63
2023/04/16 16:20:56;;;;;;;5.75;2.78;;;;;;;15.87;40.72;100275.59;30987411;28;97373;-64
2023/04/16 16:35:57;;;;;;;5.20;3.63;;;;;;;15.17;42.15;100294.50;30911699;28;97604;-65
2023/04/16 16:50:57;;;;;;;5.45;3.15;;;;;;;14.57;43.71;100310.13;30951189;28;104528;-63
2023/04/16 17:05:57;;;;;;;6.20;4.22;;;;;;;14.25;44.64;100324.88;30954719;28;97635;-65
2023/04/16 17:20:58;;;;;;;5.50;3.10;;;;;;;13.95;45.85;100333.84;30961286;28;109577;-63
2023/04/16 17:35:58;;;;;;;5.22;2.53;;;;;;;13.20;48.76;100358.00;31073708;28;114021;-63
2023/04/16 17:50:58;;;;;;;6.95;2.97;;;;;;;12.45;50.23;100380.19;31101885;28;114199;-64
2023/04/16 18:05:59;;;;;;;7.13;2.95;;;;;;;12.01;52.14;100392.31;31102560;28;105523;-62
2023/04/16 18:20:59;;;;;;;5.63;3.95;;;;;;;11.65;53.98;100411.44;31040990;28;96857;-63
2023/04/16 18:36:01;;;;;;;6.63;4.18;;;;;;;11.48;55.45;100427.50;31044825;28;97250;-63
2023/04/16 18:51:01;;;;;;;8.50;5.07;;;;;;;11.31;56.42;100431.19;30971201;28;97602;-63
2023/04/16 19:06:01;;;;;;;6.90;4.28;;;;;;;11.09;57.95;100440.72;30973957;28;105305;-64
2023/04/16 19:21:02;;;;;;;7.68;4.85;;;;;;;10.92;58.67;100453.22;30988133;28;96727;-63
2023/04/16 19:36:02;;;;;;;11.40;6.80;;;;;;;10.83;59.58;100458.53;30991900;28;97471;-63
2023/04/16 19:51:04;;;;;;;11.80;7.53;;;;;;;11.08;59.46;100473.72;30990460;28;96791;-64
2023/04/16 20:06:06;;;;;;;13.87;8.70;;;;;;;11.22;60.16;100473.06;30979895;28;97113;-65
2023/04/16 20:21:07;;;;;;;14.27;9.40;;;;;;;11.30;60.50;100485.53;30924009;28;96663;-64
2023/04/16 20:36:08;;;;;;;11.93;8.00;;;;;;;11.29;61.07;100475.84;30864859;28;96713;-63
2023/04/16 20:51:09;;;;;;;14.02;9.18;;;;;;;11.20;61.64;100474.22;30860690;28;96828;-62
2023/04/16 21:06:13;;;;;;;14.50;9.32;;;;;;;11.14;61.70;100478.38;30862274;28;96803;-62
2023/04/16 21:21:13;;;;;;;13.73;8.20;;;;;;;11.11;62.12;100479.56;30861482;28;96738;-64
2023/04/16 21:36:14;;;;;;;13.57;9.00;;;;;;;11.00;62.64;100485.19;30858812;28;110027;-64
2023/04/16 21:51:14;;;;;;;26.42;19.25;;;;;;;10.84;62.94;100481.53;30858410;28;96803;-63
2023/04/16 22:06:15;;;;;;;16.08;9.27;;;;;;;10.82;63.49;100472.84;30858272;28;96673;-64
2023/04/16 22:21:15;;;;;;;13.13;8.50;;;;;;;10.82;63.85;100464.84;30856197;28;96642;-64
2023/04/16 22:36:16;;;;;;;14.90;9.70;;;;;;;10.77;64.83;100475.19;30855772;28;103395;-64
2023/04/16 22:51:16;;;;;;;15.80;10.38;;;;;;;10.67;64.98;100469.16;30854294;28;96777;-66
2023/04/16 23:06:16;;;;;;;18.58;10.45;;;;;;;10.57;65.56;100471.16;30853845;28;98486;-64
2023/04/16 23:21:17;;;;;;;16.42;11.18;;;;;;;10.53;65.80;100480.47;30852922;28;96643;-64
2023/04/16 23:36:17;;;;;;;21.73;13.00;;;;;;;10.29;66.74;100479.38;30851790;28;97567;-65
2023/04/16 23:51:17;;;;;;;19.70;12.80;;;;;;;10.02;67.52;100473.28;30855275;28;104892;-64
